This is the latest recevied weather packets stored in our database for station/object F1PPH-1. If no packets are shown the sender has not sent any weather packets the latest 10 day(s).
| Time | Temp. | Humidity | Pressure | Rain* | Wind** | Luminosity | Snow |
|---|---|---|---|---|---|---|---|
| 1777447967 | 16.67° C | 37% | 1007.8 hPa | - | - | - | - |
| 1777439327 | 12.78° C | 36% | 1007.1 hPa | - | - | - | - |
| 1777433253 | 13.89° C | 34% | 1007 hPa | - | - | - | - |
| 1777430192 | 15° C | 34% | 1007.2 hPa | - | - | - | - |
| 1777426591 | 16.11° C | 33% | 1007.1 hPa | - | - | - | - |
| 1777423712 | 17.22° C | 33% | 1007.4 hPa | - | - | - | - |
| 1777420833 | 17.22° C | 32% | 1007.4 hPa | - | - | - | - |
| 1777417951 | 17.22° C | 32% | 1007.6 hPa | - | - | - | - |
| 1777415071 | 17.22° C | 31% | 1007.8 hPa | - | - | - | - |
| 1777412190 | 18.33° C | 30% | 1008 hPa | - | - | - | - |
| 1777408594 | 20° C | 29% | 1008.2 hPa | - | - | - | - |
| 1777396350 | 25.56° C | 26% | 1007.3 hPa | - | - | - | - |
| 1777393468 | 26.67° C | 26% | 1007.3 hPa | - | - | - | - |
| 1777387707 | 32.22° C | 26% | 1007.8 hPa | - | - | - | - |
| 1777384838 | 31.11° C | 27% | 1008.3 hPa | - | - | - | - |
| 1777381948 | 31.11° C | 28% | 1008.9 hPa | - | - | - | - |
| 1777376189 | 29.44° C | 30% | 1009.7 hPa | - | - | - | - |
| 1777370427 | 25° C | 33% | 1010.5 hPa | - | - | - | - |
| 1777367545 | 20° C | 35% | 1010.7 hPa | - | - | - | - |
| 1777364666 | 16.11° C | 36% | 1011.1 hPa | - | - | - | - |
| 1777358906 | 12.22° C | 36% | 1011.1 hPa | - | - | - | - |
| 1777355306 | 10.56° C | 35% | 1010.9 hPa | - | - | - | - |
| 1777351705 | 8.89° C | 34% | 1010.9 hPa | - | - | - | - |
| 1777348823 | 10° C | 34% | 1011.2 hPa | - | - | - | - |
| 1777345944 | 10.56° C | 33% | 1011.6 hPa | - | - | - | - |
* Rain since midnight (hover to see other rain measurements)
** Current wind speed in m/s (hover to see current wind gust speed)